Time;durP1;ratioP1;P1;durP2;ratioP2;P2;SDS_P1;SDS_P2;PMS_P1;PMS_P2;Temp;Humidity;BMP_temperature;BMP_pressure;BME280_temperature;BME280_humidity;BME280_pressure;Samples;Min_cycle;Max_cycle;Signal;HPM_P1;HPM_P2
2022/11/13 00:01:12;;;;;;;22.83;12.43;;;;;;;4.34;100.00;102350.44;4917629;29;20291;-73
2022/11/13 00:03:58;;;;;;;24.33;13.80;;;;;;;4.47;100.00;102347.34;4920694;29;20321;-73
2022/11/13 00:06:43;;;;;;;24.37;12.93;;;;;;;4.63;100.00;102345.19;4920971;29;20347;-73
2022/11/13 00:09:29;;;;;;;23.10;13.00;;;;;;;4.71;100.00;102343.66;4921717;29;20306;-73
2022/11/13 00:12:14;;;;;;;26.07;14.33;;;;;;;4.80;100.00;102340.41;4917362;29;20227;-73
2022/11/13 00:14:59;;;;;;;26.60;14.40;;;;;;;4.86;100.00;102338.00;4924210;29;20295;-73
2022/11/13 00:17:45;;;;;;;25.27;14.13;;;;;;;4.94;100.00;102333.88;4919947;29;20218;-73
2022/11/13 00:20:30;;;;;;;25.17;13.30;;;;;;;5.02;100.00;102331.50;4918323;29;20286;-73
2022/11/13 00:23:15;;;;;;;24.53;13.10;;;;;;;5.05;100.00;102323.81;4918458;29;20371;-73
2022/11/13 00:26:05;;;;;;;27.93;14.77;;;;;;;5.12;100.00;102333.47;4923125;29;20246;-73
2022/11/13 00:28:53;;;;;;;29.77;14.13;;;;;;;5.19;100.00;102321.53;4921633;29;20254;-73
2022/11/13 00:31:38;;;;;;;28.67;14.33;;;;;;;5.23;100.00;102320.78;4922798;29;20265;-72
2022/11/13 00:34:23;;;;;;;27.40;14.83;;;;;;;5.27;100.00;102320.00;4919369;29;20631;-73
2022/11/13 00:37:08;;;;;;;25.40;12.53;;;;;;;5.32;100.00;102316.69;4922103;29;20231;-73
2022/11/13 00:39:53;;;;;;;25.40;13.93;;;;;;;5.41;100.00;102318.59;4923032;29;20210;-73
2022/11/13 00:42:39;;;;;;;27.20;14.47;;;;;;;5.46;100.00;102314.41;4918518;29;20228;-73
2022/11/13 00:45:24;;;;;;;24.23;14.60;;;;;;;5.50;100.00;102303.31;4922266;29;20311;-73
2022/11/13 00:48:09;;;;;;;26.53;13.00;;;;;;;5.58;100.00;102310.34;4919929;29;20347;-73
2022/11/13 00:50:55;;;;;;;22.90;13.03;;;;;;;5.62;100.00;102304.41;4923276;29;20226;-73
2022/11/13 00:53:40;;;;;;;29.97;14.33;;;;;;;5.66;100.00;102308.78;4921759;29;20253;-73
2022/11/13 00:56:25;;;;;;;19.53;13.23;;;;;;;5.70;100.00;102305.44;4920184;29;20731;-73
2022/11/13 00:59:11;;;;;;;27.23;14.00;;;;;;;5.74;100.00;102303.78;4919333;29;20210;-73
2022/11/13 01:01:56;;;;;;;22.57;12.97;;;;;;;5.77;100.00;102304.72;4918066;29;20222;-72
2022/11/13 01:04:42;;;;;;;24.80;13.43;;;;;;;5.82;100.00;102297.91;4919989;29;20231;-73
2022/11/13 01:07:27;;;;;;;22.30;12.63;;;;;;;5.83;100.00;102304.81;4915925;29;20499;-72
2022/11/13 01:10:12;;;;;;;23.20;13.60;;;;;;;5.88;100.00;102304.94;4919577;29;20685;-73
2022/11/13 01:12:57;;;;;;;24.23;13.63;;;;;;;5.92;100.00;102295.50;4912692;29;20238;-73
2022/11/13 01:15:45;;;;;;;24.20;12.60;;;;;;;5.94;100.00;102304.19;4917089;29;20265;-73
2022/11/13 01:18:30;;;;;;;21.10;12.33;;;;;;;5.96;100.00;102299.94;4915267;29;20331;-73
2022/11/13 01:21:17;;;;;;;24.43;13.23;;;;;;;5.98;100.00;102309.50;4918727;29;20274;-73
2022/11/13 01:24:02;;;;;;;23.97;13.13;;;;;;;5.99;100.00;102308.63;4919668;29;20302;-73
2022/11/13 01:26:48;;;;;;;24.90;13.03;;;;;;;6.03;100.00;102305.28;4918587;29;20734;-73
2022/11/13 01:29:33;;;;;;;23.37;14.03;;;;;;;6.04;100.00;102298.38;4911209;29;20572;-73
2022/11/13 01:32:19;;;;;;;21.47;11.93;;;;;;;6.09;100.00;102301.94;4915020;29;20569;-71
2022/11/13 01:35:05;;;;;;;23.33;12.83;;;;;;;6.10;100.00;102300.19;4917612;29;20621;-71
2022/11/13 01:37:50;;;;;;;23.97;13.00;;;;;;;6.13;100.00;102293.34;4919677;29;20353;-71
2022/11/13 01:40:36;;;;;;;19.57;12.47;;;;;;;6.17;100.00;102300.34;4918167;29;20212;-71
2022/11/13 01:43:26;;;;;;;20.33;11.70;;;;;;;6.19;100.00;102293.50;4912876;29;20222;-71
2022/11/13 01:46:22;;;;;;;19.50;11.27;;;;;;;6.20;100.00;102290.03;4917224;29;20441;-71
2022/11/13 01:49:25;;;;;;;24.97;12.13;;;;;;;6.24;100.00;102280.59;4916108;29;20208;-71
2022/11/13 01:52:15;;;;;;;16.83;11.10;;;;;;;6.27;100.00;102277.22;4918904;29;20204;-71
2022/11/13 01:55:03;;;;;;;19.10;10.50;;;;;;;6.30;100.00;102279.84;4916647;29;20240;-71
2022/11/13 01:57:49;;;;;;;16.07;10.40;;;;;;;6.32;100.00;102270.41;4918461;29;20235;-72
2022/11/13 02:00:34;;;;;;;18.97;11.40;;;;;;;6.35;100.00;102270.44;4918749;29;20328;-71
2022/11/13 02:03:19;;;;;;;16.90;10.33;;;;;;;6.38;100.00;102271.34;4916585;29;20255;-71
2022/11/13 02:06:05;;;;;;;19.30;11.13;;;;;;;6.39;100.00;102274.84;4917106;29;20595;-71
2022/11/13 02:08:51;;;;;;;15.47;10.63;;;;;;;6.42;100.00;102265.41;4913995;29;20217;-71
2022/11/13 02:11:37;;;;;;;22.80;11.00;;;;;;;6.46;100.00;102262.88;4921272;29;20532;-71
2022/11/13 02:14:25;;;;;;;20.73;10.53;;;;;;;6.48;100.00;102266.34;4916590;29;20600;-71
2022/11/13 02:17:15;;;;;;;19.10;10.97;;;;;;;6.51;100.00;102267.28;4916786;29;20210;-71
2022/11/13 02:20:05;;;;;;;18.17;10.70;;;;;;;6.51;100.00;102266.38;4919469;29;20215;-71
2022/11/13 02:23:01;;;;;;;22.43;12.47;;;;;;;6.51;100.00;102263.78;4922445;29;20317;-71
2022/11/13 02:25:50;;;;;;;20.67;11.63;;;;;;;6.54;100.00;102263.84;4927150;29;20215;-71
2022/11/13 02:28:35;;;;;;;21.13;11.70;;;;;;;6.59;100.00;102252.72;4924221;29;20616;-71
2022/11/13 02:31:20;;;;;;;21.87;11.57;;;;;;;6.63;100.00;102257.13;4919096;29;20860;-71
2022/11/13 02:34:05;;;;;;;23.90;12.40;;;;;;;6.64;100.00;102256.25;4919989;29;20241;-71
2022/11/13 02:36:50;;;;;;;19.73;11.57;;;;;;;6.64;100.00;102245.88;4921765;29;20586;-71
2022/11/13 02:39:36;;;;;;;20.63;11.47;;;;;;;6.66;100.00;102245.03;4921503;29;20555;-71
2022/11/13 02:42:22;;;;;;;18.00;11.50;;;;;;;6.64;100.00;102243.28;4925372;29;20353;-71
2022/11/13 02:45:08;;;;;;;21.27;11.73;;;;;;;6.69;100.00;102239.91;4919224;29;20238;-71
2022/11/13 02:47:53;;;;;;;20.10;12.07;;;;;;;6.68;100.00;102233.84;4920473;29;20220;-71
2022/11/13 02:50:38;;;;;;;18.50;11.53;;;;;;;6.70;100.00;102220.91;4926040;29;20641;-71
2022/11/13 02:53:23;;;;;;;17.17;11.33;;;;;;;6.69;100.00;102219.19;4922865;29;20242;-71
2022/11/13 02:56:08;;;;;;;17.47;11.47;;;;;;;6.69;100.00;102230.41;4919874;29;20697;-72
2022/11/13 02:58:55;;;;;;;23.53;11.67;;;;;;;6.71;100.00;102226.13;4921111;29;20540;-71
2022/11/13 03:01:40;;;;;;;18.57;11.50;;;;;;;6.72;100.00;102219.19;4922547;29;20757;-71
2022/11/13 03:04:25;;;;;;;16.10;11.13;;;;;;;6.74;100.00;102214.94;4923182;29;20251;-71
2022/11/13 03:07:10;;;;;;;19.93;10.63;;;;;;;6.72;100.00;102216.63;4920417;29;20216;-71
2022/11/13 03:09:55;;;;;;;17.60;10.17;;;;;;;6.73;100.00;102214.03;4923792;29;20230;-72
2022/11/13 03:12:40;;;;;;;17.43;10.53;;;;;;;6.76;100.00;102200.28;4926581;29;20630;-71
2022/11/13 03:15:27;;;;;;;15.30;10.20;;;;;;;6.77;100.00;102213.25;4920377;29;20455;-71
2022/11/13 03:18:12;;;;;;;16.23;10.03;;;;;;;6.76;100.00;102208.91;4920658;29;20207;-71
2022/11/13 03:20:57;;;;;;;14.37;10.23;;;;;;;6.75;100.00;102199.38;4923296;29;20298;-71
2022/11/13 03:23:44;;;;;;;16.77;10.60;;;;;;;6.77;100.00;102209.78;4917858;29;20237;-71
2022/11/13 03:26:29;;;;;;;18.67;10.30;;;;;;;6.78;100.00;102196.84;4946167;23;20239;-73
2022/11/13 03:29:15;;;;;;;15.50;10.20;;;;;;;6.77;100.00;102199.41;4923188;29;20269;-74
2022/11/13 03:32:03;;;;;;;20.00;9.83;;;;;;;6.79;100.00;102202.91;4924606;29;20216;-73
2022/11/13 03:34:47;;;;;;;15.80;9.23;;;;;;;6.80;100.00;102187.34;4925572;29;20231;-74
2022/11/13 03:37:32;;;;;;;17.30;10.23;;;;;;;6.78;100.00;102188.19;4918728;29;20705;-73
2022/11/13 03:40:18;;;;;;;16.17;8.90;;;;;;;6.77;100.00;102187.34;4921543;29;20208;-73
2022/11/13 03:43:02;;;;;;;15.43;9.43;;;;;;;6.77;100.00;102183.84;4923449;29;20219;-73
2022/11/13 03:45:48;;;;;;;16.50;11.17;;;;;;;6.76;100.00;102183.00;4918193;29;20273;-73
2022/11/13 03:48:35;;;;;;;15.63;10.47;;;;;;;6.77;100.00;102187.34;4921615;29;20489;-73
2022/11/13 03:51:20;;;;;;;15.37;10.47;;;;;;;6.80;100.00;102183.91;4916603;29;20259;-73
2022/11/13 03:54:06;;;;;;;16.40;9.80;;;;;;;6.80;100.00;102187.34;4921929;29;20447;-73
2022/11/13 03:56:51;;;;;;;15.53;10.13;;;;;;;6.78;100.00;102191.66;4919109;29;20217;-73
2022/11/13 03:59:36;;;;;;;18.63;10.90;;;;;;;6.78;100.00;102191.66;4914071;29;20227;-73
2022/11/13 04:02:21;;;;;;;18.13;10.43;;;;;;;6.79;100.00;102198.59;4918136;29;20216;-74
2022/11/13 04:05:09;;;;;;;16.97;11.50;;;;;;;6.78;100.00;102186.47;4923314;29;20590;-74
2022/11/13 04:07:54;;;;;;;16.37;10.83;;;;;;;6.80;100.00;102187.34;4921923;29;20220;-73
2022/11/13 04:10:39;;;;;;;16.63;10.93;;;;;;;6.79;100.00;102184.78;4919152;29;20218;-73
2022/11/13 04:13:24;;;;;;;18.43;12.07;;;;;;;6.79;100.00;102185.63;4921032;29;20220;-74
2022/11/13 04:16:09;;;;;;;18.87;11.50;;;;;;;6.79;100.00;102180.44;4921091;29;20239;-73
2022/11/13 04:18:54;;;;;;;16.97;10.60;;;;;;;6.77;100.00;102181.25;4922674;29;20226;-73
2022/11/13 04:21:40;;;;;;;15.87;10.07;;;;;;;6.79;100.00;102192.56;4919154;29;20222;-73
2022/11/13 04:24:26;;;;;;;16.73;10.77;;;;;;;6.78;100.00;102188.19;4918567;29;20427;-74
2022/11/13 04:27:11;;;;;;;15.67;10.20;;;;;;;6.79;100.00;102185.63;4920677;29;20224;-73
2022/11/13 04:29:57;;;;;;;15.63;9.40;;;;;;;6.78;100.00;102186.47;4918535;29;20218;-73
2022/11/13 04:32:42;;;;;;;16.60;10.87;;;;;;;6.78;100.00;102175.25;4918700;29;20912;-73
2022/11/13 04:35:27;;;;;;;16.93;10.30;;;;;;;6.78;100.00;102173.50;4914062;29;20294;-73
2022/11/13 04:38:13;;;;;;;15.30;10.00;;;;;;;6.77;100.00;102170.88;4920942;29;20220;-73
2022/11/13 04:43:58;;;;;;;14.93;8.63;;;;;;;6.75;100.00;102170.88;4920245;29;20638;-74
2022/11/13 04:46:43;;;;;;;15.77;9.53;;;;;;;6.75;100.00;102170.88;4920742;29;20239;-74
2022/11/13 04:49:28;;;;;;;14.17;9.37;;;;;;;6.76;100.00;102167.44;4919776;29;20288;-73
2022/11/13 04:52:13;;;;;;;15.70;9.17;;;;;;;6.76;100.00;102166.56;4911285;29;20213;-73
2022/11/13 04:55:00;;;;;;;17.20;10.13;;;;;;;6.73;100.00;102164.78;4919437;29;20264;-73
2022/11/13 04:57:44;;;;;;;15.73;10.10;;;;;;;6.74;100.00;102158.78;4921462;29;20354;-73
2022/11/13 05:00:30;;;;;;;13.57;9.47;;;;;;;6.73;100.00;102156.16;4920222;29;20226;-73
2022/11/13 05:03:15;;;;;;;17.20;10.77;;;;;;;6.73;100.00;102159.59;4922678;29;20224;-73
2022/11/13 05:06:04;;;;;;;16.10;10.30;;;;;;;6.74;100.00;102158.78;4917560;29;20597;-74
2022/11/13 05:08:49;;;;;;;16.83;10.47;;;;;;;6.72;100.00;102152.69;4920851;29;21613;-73
2022/11/13 05:11:35;;;;;;;20.10;11.20;;;;;;;6.70;100.00;102159.59;4920574;29;20228;-74
2022/11/13 05:14:20;;;;;;;14.17;9.80;;;;;;;6.72;100.00;102159.59;4918504;29;20455;-74
2022/11/13 05:17:06;;;;;;;16.43;10.47;;;;;;;6.73;100.00;102166.53;4919124;29;20742;-73
2022/11/13 05:19:51;;;;;;;17.57;10.33;;;;;;;6.74;100.00;102169.13;4920953;29;20649;-74
2022/11/13 05:22:36;;;;;;;15.43;10.33;;;;;;;6.76;100.00;102166.56;4919679;29;20211;-74
2022/11/13 05:25:21;;;;;;;19.90;11.63;;;;;;;6.74;100.00;102163.09;4922078;29;20244;-73
2022/11/13 05:28:08;;;;;;;17.47;11.53;;;;;;;6.72;100.00;102160.47;4922690;29;20212;-73
2022/11/13 05:30:53;;;;;;;19.10;10.70;;;;;;;6.72;100.00;102159.59;4916787;29;20207;-73
2022/11/13 05:33:39;;;;;;;16.77;10.83;;;;;;;6.71;100.00;102152.69;4917654;29;20212;-73
2022/11/13 05:36:24;;;;;;;15.60;10.43;;;;;;;6.70;100.00;102153.50;4921977;29;20248;-73
2022/11/13 05:39:10;;;;;;;17.43;10.57;;;;;;;6.70;100.00;102158.69;4920413;29;20215;-74
2022/11/13 05:41:55;;;;;;;20.10;11.03;;;;;;;6.70;100.00;102161.28;4919762;29;20319;-74
2022/11/13 05:44:42;;;;;;;18.60;10.57;;;;;;;6.69;100.00;102154.38;4919546;29;20342;-74
2022/11/13 05:47:27;;;;;;;18.53;11.83;;;;;;;6.68;100.00;102160.41;4919018;29;20217;-74
2022/11/13 05:50:12;;;;;;;19.37;11.63;;;;;;;6.69;100.00;102160.44;4921095;29;20692;-74
2022/11/13 05:52:57;;;;;;;17.87;10.97;;;;;;;6.68;100.00;102148.31;4922115;29;20401;-73
2022/11/13 05:55:42;;;;;;;22.27;11.57;;;;;;;6.64;100.00;102147.38;4924458;29;20302;-73
2022/11/13 05:58:28;;;;;;;22.03;11.93;;;;;;;6.66;100.00;102146.56;4926430;29;20240;-73
2022/11/13 06:01:16;;;;;;;20.00;11.27;;;;;;;6.62;100.00;102143.91;4926463;29;20349;-74
2022/11/13 06:04:04;;;;;;;19.60;11.37;;;;;;;6.64;100.00;102143.94;4925704;29;20219;-73
2022/11/13 06:06:51;;;;;;;21.03;12.10;;;;;;;6.63;100.00;102150.84;4922926;29;20221;-73
2022/11/13 06:09:36;;;;;;;21.33;10.73;;;;;;;6.63;100.00;102144.75;4924071;29;20237;-73
2022/11/13 06:12:21;;;;;;;20.90;12.10;;;;;;;6.62;100.00;102148.22;4916081;29;20252;-74
2022/11/13 06:15:07;;;;;;;24.30;12.07;;;;;;;6.62;100.00;102146.50;4919371;29;20282;-74
2022/11/13 06:17:53;;;;;;;17.60;10.77;;;;;;;6.59;100.00;102150.75;4921188;29;20215;-74
2022/11/13 06:20:38;;;;;;;18.37;11.67;;;;;;;6.59;100.00;102140.41;4925513;29;20210;-73
2022/11/13 06:23:23;;;;;;;18.83;11.13;;;;;;;6.58;100.00;102138.69;4926254;29;20945;-73
2022/11/13 06:26:11;;;;;;;16.97;11.03;;;;;;;6.57;100.00;102140.38;4923826;29;20700;-73
2022/11/13 06:28:56;;;;;;;18.33;10.53;;;;;;;6.57;100.00;102124.81;4924513;29;20219;-73
2022/11/13 06:31:41;;;;;;;19.33;11.83;;;;;;;6.58;100.00;102136.09;4923569;29;20230;-73
2022/11/13 06:34:28;;;;;;;23.60;16.07;;;;;;;6.56;100.00;102130.88;4926733;29;20567;-74
2022/11/13 06:37:13;;;;;;;19.53;12.70;;;;;;;6.54;100.00;102131.69;4919736;29;20496;-73
2022/11/13 06:39:57;;;;;;;21.00;12.67;;;;;;;6.53;100.00;102125.63;4923684;29;20690;-73
2022/11/13 06:42:42;;;;;;;18.23;10.60;;;;;;;6.55;100.00;102134.31;4923317;29;20223;-73
2022/11/13 06:45:27;;;;;;;18.80;12.40;;;;;;;6.55;100.00;102138.63;4918363;29;20231;-74
2022/11/13 06:48:12;;;;;;;17.53;11.30;;;;;;;6.55;100.00;102123.94;4919206;29;20233;-73
2022/11/13 06:51:02;;;;;;;18.43;11.20;;;;;;;6.52;100.00;102131.66;4920692;29;20218;-74
2022/11/13 06:53:48;;;;;;;18.40;12.03;;;;;;;6.52;100.00;102139.44;4922128;29;20286;-74
2022/11/13 06:56:33;;;;;;;18.67;11.83;;;;;;;6.53;100.00;102136.00;4921205;29;20623;-74
2022/11/13 06:59:18;;;;;;;19.30;11.90;;;;;;;6.53;100.00;102136.00;4917591;29;20732;-73
2022/11/13 07:02:03;;;;;;;21.40;11.70;;;;;;;6.54;100.00;102139.47;4919574;29;20217;-73
2022/11/13 07:04:49;;;;;;;19.50;11.73;;;;;;;6.55;100.00;102136.03;4923286;29;20231;-73
2022/11/13 07:07:35;;;;;;;20.80;11.57;;;;;;;6.57;100.00;102136.91;4919770;29;20229;-74
2022/11/13 07:10:20;;;;;;;19.03;11.00;;;;;;;6.59;100.00;102135.22;4920778;29;20217;-73
2022/11/13 07:13:06;;;;;;;23.43;12.77;;;;;;;6.59;100.00;102141.25;4918754;29;20335;-73
2022/11/13 07:15:51;;;;;;;23.07;12.47;;;;;;;6.62;100.00;102136.13;4918379;29;20720;-73
2022/11/13 07:18:36;;;;;;;19.53;11.43;;;;;;;6.62;100.00;102137.88;4919904;29;20224;-74
2022/11/13 07:21:22;;;;;;;18.37;11.27;;;;;;;6.60;100.00;102137.84;4917991;29;20289;-73
2022/11/13 07:24:09;;;;;;;17.77;10.90;;;;;;;6.60;100.00;102131.78;4915233;29;20771;-73
2022/11/13 07:26:54;;;;;;;17.27;10.43;;;;;;;6.62;100.00;102135.28;4922753;29;20216;-73
2022/11/13 07:29:41;;;;;;;17.03;11.27;;;;;;;6.60;100.00;102143.03;4920872;29;20328;-74
2022/11/13 07:32:26;;;;;;;20.90;11.97;;;;;;;6.67;100.00;102143.97;4920028;29;20706;-74
2022/11/13 07:35:12;;;;;;;22.07;12.13;;;;;;;6.71;100.00;102144.91;4920916;29;20239;-74
2022/11/13 07:37:57;;;;;;;21.53;11.93;;;;;;;6.72;100.00;102139.75;4924205;29;20575;-73
2022/11/13 07:40:43;;;;;;;20.77;12.07;;;;;;;6.71;100.00;102143.16;4924832;29;20213;-73
2022/11/13 07:43:29;;;;;;;17.63;11.93;;;;;;;6.75;100.00;102137.16;4918770;29;20223;-74
2022/11/13 07:46:14;;;;;;;20.07;12.10;;;;;;;6.75;100.00;102137.16;4920411;29;20277;-74
2022/11/13 07:48:59;;;;;;;19.37;11.97;;;;;;;6.77;100.00;102132.91;4920629;29;20221;-73
2022/11/13 07:51:44;;;;;;;17.47;11.00;;;;;;;6.79;100.00;102130.34;4923246;29;20693;-74
2022/11/13 07:54:29;;;;;;;19.33;11.73;;;;;;;6.80;100.00;102130.31;4922361;29;20248;-73
2022/11/13 07:57:16;;;;;;;19.70;10.77;;;;;;;6.82;100.00;102135.53;4922204;29;20239;-74
2022/11/13 08:00:01;;;;;;;18.27;10.37;;;;;;;6.85;100.00;102135.59;4922504;29;20228;-74
2022/11/13 08:02:46;;;;;;;16.93;10.33;;;;;;;6.83;100.00;102134.69;4922164;29;20214;-74
2022/11/13 08:05:32;;;;;;;16.27;9.73;;;;;;;6.83;100.00;102140.75;4918802;29;20226;-74
2022/11/13 08:08:17;;;;;;;17.93;10.40;;;;;;;6.85;100.00;102150.28;4917905;29;20216;-74
2022/11/13 08:11:06;;;;;;;18.23;10.30;;;;;;;6.85;100.00;102142.50;4921135;29;20226;-73
2022/11/13 08:13:54;;;;;;;36.77;21.00;;;;;;;6.91;100.00;102147.75;4922318;29;20215;-73
2022/11/13 08:16:39;;;;;;;46.27;26.20;;;;;;;6.93;100.00;102141.75;4923931;29;20231;-73
2022/11/13 08:19:24;;;;;;;52.53;30.00;;;;;;;6.95;100.00;102149.56;4916758;29;20216;-73
2022/11/13 08:22:09;;;;;;;60.00;29.17;;;;;;;6.99;100.00;102151.31;4922356;29;20346;-73
2022/11/13 08:24:54;;;;;;;50.73;30.43;;;;;;;7.05;100.00;102145.34;4919640;29;20361;-73
2022/11/13 08:27:39;;;;;;;30.47;18.07;;;;;;;7.02;100.00;102135.81;4914538;29;20207;-73
2022/11/13 08:30:27;;;;;;;31.27;20.73;;;;;;;7.03;100.00;102147.91;4914146;29;20260;-74
2022/11/13 08:33:12;;;;;;;20.37;13.00;;;;;;;7.04;100.00;102143.63;4918816;29;20219;-73
2022/11/13 08:35:59;;;;;;;20.63;12.87;;;;;;;6.98;100.00;102145.28;4921430;29;20228;-74
2022/11/13 08:38:44;;;;;;;17.10;10.47;;;;;;;6.98;100.00;102137.50;4918736;29;20262;-73
2022/11/13 08:41:29;;;;;;;16.03;10.40;;;;;;;6.93;100.00;102133.09;4919274;29;20275;-73
2022/11/13 08:44:14;;;;;;;18.97;11.00;;;;;;;6.94;100.00;102132.25;4915050;29;20687;-74
2022/11/13 08:47:00;;;;;;;17.60;10.73;;;;;;;6.93;100.00;102123.59;4912819;29;20218;-72
2022/11/13 08:49:45;;;;;;;20.10;11.17;;;;;;;6.98;100.00;102127.13;4914483;29;20281;-73
2022/11/13 08:52:30;;;;;;;17.80;11.53;;;;;;;7.00;100.00;102132.31;4912518;29;20214;-73
2022/11/13 08:55:15;;;;;;;20.60;10.67;;;;;;;7.05;100.00;102133.25;4915579;29;20239;-73
2022/11/13 08:58:02;;;;;;;14.33;9.70;;;;;;;7.06;100.00;102137.59;4918533;29;20722;-74
2022/11/13 09:00:47;;;;;;;16.27;10.50;;;;;;;7.11;100.00;102128.13;4919418;29;20328;-73
2022/11/13 09:03:34;;;;;;;16.67;10.67;;;;;;;7.11;100.00;102120.34;4918789;29;20310;-74
2022/11/13 09:06:19;;;;;;;18.43;10.90;;;;;;;7.13;100.00;102121.25;4920358;29;20328;-73
2022/11/13 09:09:05;;;;;;;17.70;10.63;;;;;;;7.15;100.00;102119.53;4916389;29;20208;-75
2022/11/13 09:11:50;;;;;;;14.73;9.57;;;;;;;7.15;100.00;102121.25;4920125;29;20659;-73
2022/11/13 09:14:36;;;;;;;19.07;11.17;;;;;;;7.18;100.00;102113.53;4921236;29;20283;-73
2022/11/13 09:17:21;;;;;;;20.57;13.60;;;;;;;7.19;100.00;102117.84;4917823;29;20355;-73
2022/11/13 09:20:08;;;;;;;21.10;13.60;;;;;;;7.17;100.00;102119.56;4915304;29;20261;-73
2022/11/13 09:22:58;;;;;;;25.33;17.93;;;;;;;7.15;100.00;102110.88;4918536;29;20786;-73
2022/11/13 09:25:43;;;;;;;17.83;10.80;;;;;;;7.16;100.00;102117.84;4929841;23;20250;-69
2022/11/13 09:28:28;;;;;;;21.73;14.80;;;;;;;7.18;100.00;102109.19;4920596;29;20219;-69
2022/11/13 09:31:14;;;;;;;18.67;10.63;;;;;;;7.23;100.00;102108.38;4918415;29;20206;-69
2022/11/13 09:33:59;;;;;;;17.80;11.13;;;;;;;7.27;100.00;102111.03;4916601;29;20208;-68
2022/11/13 09:36:46;;;;;;;16.90;10.20;;;;;;;7.30;100.00;102105.00;4909677;29;20271;-69
2022/11/13 09:39:32;;;;;;;19.80;11.00;;;;;;;7.37;100.00;102110.28;4908747;29;20687;-69
2022/11/13 09:42:20;;;;;;;14.67;10.07;;;;;;;7.45;100.00;102107.75;4908595;29;20269;-70
2022/11/13 09:45:10;;;;;;;15.67;9.83;;;;;;;7.52;100.00;102103.50;4903689;29;20220;-69
2022/11/13 09:47:58;;;;;;;16.50;9.80;;;;;;;7.56;100.00;102092.28;4906547;29;20236;-70
2022/11/13 09:50:43;;;;;;;15.27;9.73;;;;;;;7.62;100.00;102099.28;4911001;29;20212;-70
2022/11/13 09:53:34;;;;;;;15.97;9.57;;;;;;;7.64;100.00;102097.56;4911461;29;20519;-70
2022/11/13 09:56:27;;;;;;;13.77;9.73;;;;;;;7.65;100.00;102096.69;4914575;29;20227;-69
2022/11/13 09:59:21;;;;;;;14.10;9.23;;;;;;;7.73;100.00;102092.47;4912896;29;20212;-69
2022/11/13 10:02:17;;;;;;;17.40;10.27;;;;;;;7.81;100.00;102093.41;4913814;29;20455;-69
2022/11/13 10:05:09;;;;;;;16.40;9.93;;;;;;;7.78;100.00;102102.03;4916058;29;20743;-70
2022/11/13 10:08:03;;;;;;;18.63;10.60;;;;;;;7.78;100.00;102099.44;4907999;29;20217;-70
2022/11/13 10:10:55;;;;;;;18.73;11.87;;;;;;;7.92;100.00;102096.94;4914684;29;20269;-69
2022/11/13 10:13:45;;;;;;;16.73;8.83;;;;;;;7.98;100.00;102096.13;4918295;29;20216;-69
2022/11/13 10:16:35;;;;;;;15.53;9.10;;;;;;;7.99;100.00;102087.50;4917540;29;20248;-70
2022/11/13 10:19:28;;;;;;;17.43;10.07;;;;;;;8.02;100.00;102078.84;4917483;29;20237;-69
2022/11/13 10:22:20;;;;;;;16.43;10.10;;;;;;;8.04;100.00;102082.31;4916090;29;20225;-69
2022/11/13 10:25:13;;;;;;;16.07;10.63;;;;;;;8.12;100.00;102080.66;4913178;29;20926;-70
2022/11/13 10:28:02;;;;;;;17.87;10.83;;;;;;;8.17;100.00;102078.97;4912200;29;20281;-70
2022/11/13 10:30:48;;;;;;;17.77;11.00;;;;;;;8.26;100.00;102092.00;4917796;29;20345;-69
2022/11/13 10:33:33;;;;;;;18.97;10.23;;;;;;;8.33;100.00;102085.97;4912176;29;20585;-70
2022/11/13 10:36:25;;;;;;;15.70;10.00;;;;;;;8.34;100.00;102085.13;4911868;29;20289;-70
2022/11/13 10:39:11;;;;;;;14.47;9.00;;;;;;;8.31;100.00;102087.72;4911495;29;20727;-70
2022/11/13 10:41:56;;;;;;;14.63;10.03;;;;;;;8.30;100.00;102077.31;4910585;29;20586;-70
2022/11/13 10:44:53;;;;;;;15.10;9.43;;;;;;;8.26;100.00;102084.22;4912611;29;20232;-69
2022/11/13 10:47:45;;;;;;;16.77;11.07;;;;;;;8.22;100.00;102087.66;4918086;29;20317;-68
2022/11/13 10:50:31;;;;;;;17.43;11.20;;;;;;;8.22;100.00;102085.06;4917124;29;20363;-70
2022/11/13 10:53:18;;;;;;;18.97;10.93;;;;;;;8.20;100.00;102078.97;4924187;29;20213;-70
2022/11/13 10:56:13;;;;;;;18.00;11.50;;;;;;;8.13;100.00;102080.66;4920835;29;20240;-70
2022/11/13 10:59:03;;;;;;;16.47;10.67;;;;;;;8.02;100.00;102069.34;4922379;29;20713;-68
2022/11/13 11:01:50;;;;;;;25.07;14.30;;;;;;;8.01;100.00;102067.59;4915703;29;20285;-69
2022/11/13 11:04:35;;;;;;;19.73;11.40;;;;;;;7.99;100.00;102071.03;4916807;29;20214;-70
2022/11/13 11:07:22;;;;;;;14.03;10.23;;;;;;;7.95;100.00;102063.22;4913189;29;20244;-70
2022/11/13 11:10:21;;;;;;;15.83;10.20;;;;;;;7.90;100.00;102070.09;4913275;29;20237;-70
2022/11/13 11:13:11;;;;;;;15.13;9.90;;;;;;;7.83;100.00;102050.13;4909681;29;20212;-70
2022/11/13 11:16:01;;;;;;;22.80;12.60;;;;;;;7.81;100.00;102056.16;4915845;29;20367;-70
2022/11/13 11:18:53;;;;;;;20.23;11.47;;;;;;;7.78;100.00;102059.63;4913632;29;20349;-70
2022/11/13 11:21:41;;;;;;;19.40;12.67;;;;;;;7.76;100.00;102059.59;4919780;29;20562;-70
2022/11/13 11:24:32;;;;;;;20.67;12.33;;;;;;;7.80;100.00;102064.81;4917041;29;20598;-69
2022/11/13 11:27:22;;;;;;;20.67;12.37;;;;;;;7.74;100.00;102061.31;4911610;29;20246;-70
2022/11/13 11:30:17;;;;;;;21.43;13.93;;;;;;;7.73;100.00;102054.38;4905442;29;20288;-70
2022/11/13 11:33:10;;;;;;;21.47;12.57;;;;;;;7.76;100.00;102049.22;4913570;29;20578;-69
2022/11/13 11:36:02;;;;;;;21.87;12.60;;;;;;;7.76;100.00;102051.81;4916775;29;20300;-69
2022/11/13 11:38:53;;;;;;;23.03;13.33;;;;;;;7.76;100.00;102037.97;4916015;29;20232;-70
2022/11/13 11:41:45;;;;;;;23.17;13.03;;;;;;;7.81;100.00;102031.09;4919095;29;20213;-70
2022/11/13 11:44:35;;;;;;;23.23;13.00;;;;;;;7.85;100.00;102026.78;4916595;29;20223;-70
2022/11/13 11:47:20;;;;;;;19.70;12.20;;;;;;;7.84;100.00;102025.91;4916440;29;20761;-69
2022/11/13 11:50:13;;;;;;;20.37;12.57;;;;;;;7.82;100.00;102016.38;4915909;29;20212;-70
2022/11/13 11:53:05;;;;;;;22.33;12.90;;;;;;;7.84;100.00;102015.50;4916385;29;20253;-68
2022/11/13 11:56:03;;;;;;;23.33;13.43;;;;;;;7.83;100.00;102013.78;4918030;29;20721;-70
2022/11/13 11:59:09;;;;;;;19.63;12.63;;;;;;;7.87;100.00;102014.69;4914535;29;20617;-69
2022/11/13 12:02:12;;;;;;;20.80;12.00;;;;;;;7.90;100.00;102007.78;4918018;29;20634;-69
2022/11/13 12:05:16;;;;;;;19.33;12.67;;;;;;;7.91;100.00;102012.09;4914127;29;20228;-69
2022/11/13 12:08:12;;;;;;;22.33;13.30;;;;;;;7.89;100.00;102016.41;4921792;29;20733;-69
2022/11/13 12:11:06;;;;;;;19.37;11.50;;;;;;;7.88;100.00;102009.50;4920455;29;20799;-69
2022/11/13 12:14:02;;;;;;;20.00;12.47;;;;;;;7.89;100.00;102007.75;4916703;29;20378;-70
2022/11/13 12:17:01;;;;;;;22.10;11.80;;;;;;;7.93;100.00;102004.31;4915192;29;20276;-69
2022/11/13 12:19:58;;;;;;;20.67;12.87;;;;;;;7.90;100.00;101994.78;4913338;29;20217;-70
2022/11/13 12:22:53;;;;;;;25.10;13.80;;;;;;;7.88;100.00;101996.50;4918302;29;20299;-69
2022/11/13 12:25:49;;;;;;;19.07;11.93;;;;;;;7.93;100.00;101988.72;4922066;29;20292;-69
2022/11/13 12:28:45;;;;;;;19.67;12.07;;;;;;;7.95;100.00;101984.44;4914344;29;20319;-70
2022/11/13 12:31:46;;;;;;;22.47;12.23;;;;;;;7.94;100.00;101974.91;4908208;29;20279;-70
2022/11/13 12:34:37;;;;;;;20.93;11.67;;;;;;;8.00;100.00;101971.47;4911220;29;20225;-69
2022/11/13 12:37:28;;;;;;;25.10;13.37;;;;;;;7.97;100.00;101970.59;4914646;29;21040;-70
2022/11/13 12:40:20;;;;;;;30.67;15.23;;;;;;;8.00;100.00;101964.53;4918431;29;20638;-70
2022/11/13 12:43:33;;;;;;;39.57;19.43;;;;;;;7.97;100.00;101964.53;4914985;29;20347;-69